sensor_id;sensor_type;location;lat;lon;timestamp;P1;durP1;ratioP1;P2;durP2;ratioP2
9819;SDS011;4949;48.482;9.206;2023-04-03T00:02:50;4.53;;;4.13;;
9819;SDS011;4949;48.482;9.206;2023-04-03T00:07:51;6.40;;;4.37;;
9819;SDS011;4949;48.482;9.206;2023-04-03T00:12:51;4.10;;;3.90;;
9819;SDS011;4949;48.482;9.206;2023-04-03T00:17:55;4.23;;;3.90;;
9819;SDS011;4949;48.482;9.206;2023-04-03T00:22:55;4.50;;;4.10;;
9819;SDS011;4949;48.482;9.206;2023-04-03T00:27:56;4.63;;;4.23;;
9819;SDS011;4949;48.482;9.206;2023-04-03T00:32:57;4.50;;;4.10;;
9819;SDS011;4949;48.482;9.206;2023-04-03T00:38:00;4.37;;;4.07;;
9819;SDS011;4949;48.482;9.206;2023-04-03T00:43:05;4.50;;;4.10;;
9819;SDS011;4949;48.482;9.206;2023-04-03T00:48:18;5.63;;;4.00;;
9819;SDS011;4949;48.482;9.206;2023-04-03T00:53:34;7.20;;;4.43;;
9819;SDS011;4949;48.482;9.206;2023-04-03T00:58:44;5.83;;;4.60;;
9819;SDS011;4949;48.482;9.206;2023-04-03T01:03:54;4.00;;;3.70;;
9819;SDS011;4949;48.482;9.206;2023-04-03T01:08:55;6.00;;;4.10;;
9819;SDS011;4949;48.482;9.206;2023-04-03T01:13:56;4.30;;;3.90;;
9819;SDS011;4949;48.482;9.206;2023-04-03T01:18:57;4.73;;;4.23;;
9819;SDS011;4949;48.482;9.206;2023-04-03T01:24:09;5.30;;;3.53;;
9819;SDS011;4949;48.482;9.206;2023-04-03T01:29:24;4.60;;;4.23;;
9819;SDS011;4949;48.482;9.206;2023-04-03T01:34:26;4.73;;;4.23;;
9819;SDS011;4949;48.482;9.206;2023-04-03T01:39:28;4.80;;;4.47;;
9819;SDS011;4949;48.482;9.206;2023-04-03T01:44:29;4.30;;;3.90;;
9819;SDS011;4949;48.482;9.206;2023-04-03T01:49:30;4.67;;;4.07;;
9819;SDS011;4949;48.482;9.206;2023-04-03T01:54:30;4.70;;;4.27;;
9819;SDS011;4949;48.482;9.206;2023-04-03T01:59:33;4.57;;;4.23;;
9819;SDS011;4949;48.482;9.206;2023-04-03T02:04:34;4.80;;;4.37;;
9819;SDS011;4949;48.482;9.206;2023-04-03T02:09:35;4.30;;;3.90;;
9819;SDS011;4949;48.482;9.206;2023-04-03T02:14:36;5.07;;;4.57;;
9819;SDS011;4949;48.482;9.206;2023-04-03T02:19:39;5.20;;;4.37;;
9819;SDS011;4949;48.482;9.206;2023-04-03T02:24:40;4.90;;;4.50;;
9819;SDS011;4949;48.482;9.206;2023-04-03T02:29:41;4.73;;;4.33;;
9819;SDS011;4949;48.482;9.206;2023-04-03T02:34:41;5.07;;;4.60;;
9819;SDS011;4949;48.482;9.206;2023-04-03T02:39:45;4.73;;;4.23;;
9819;SDS011;4949;48.482;9.206;2023-04-03T02:44:45;4.93;;;4.50;;
9819;SDS011;4949;48.482;9.206;2023-04-03T02:49:48;3.83;;;3.60;;
9819;SDS011;4949;48.482;9.206;2023-04-03T02:54:49;4.30;;;3.90;;
9819;SDS011;4949;48.482;9.206;2023-04-03T02:59:53;4.30;;;4.00;;
9819;SDS011;4949;48.482;9.206;2023-04-03T03:04:54;5.00;;;4.60;;
9819;SDS011;4949;48.482;9.206;2023-04-03T03:09:57;4.83;;;4.33;;
9819;SDS011;4949;48.482;9.206;2023-04-03T03:14:57;5.57;;;4.70;;
9819;SDS011;4949;48.482;9.206;2023-04-03T03:19:58;4.63;;;4.23;;
9819;SDS011;4949;48.482;9.206;2023-04-03T03:24:59;4.90;;;4.50;;
9819;SDS011;4949;48.482;9.206;2023-04-03T03:30:00;5.20;;;4.70;;
9819;SDS011;4949;48.482;9.206;2023-04-03T03:35:04;5.03;;;4.63;;
9819;SDS011;4949;48.482;9.206;2023-04-03T03:40:05;4.77;;;4.20;;
9819;SDS011;4949;48.482;9.206;2023-04-03T03:45:07;5.90;;;4.90;;
9819;SDS011;4949;48.482;9.206;2023-04-03T03:50:08;5.63;;;5.13;;
9819;SDS011;4949;48.482;9.206;2023-04-03T03:55:10;3.77;;;3.53;;
9819;SDS011;4949;48.482;9.206;2023-04-03T04:00:10;4.00;;;3.70;;
9819;SDS011;4949;48.482;9.206;2023-04-03T04:05:12;5.30;;;4.80;;
9819;SDS011;4949;48.482;9.206;2023-04-03T04:10:15;5.10;;;4.63;;
9819;SDS011;4949;48.482;9.206;2023-04-03T04:15:18;5.23;;;4.73;;
9819;SDS011;4949;48.482;9.206;2023-04-03T04:20:21;4.83;;;4.33;;
9819;SDS011;4949;48.482;9.206;2023-04-03T04:25:25;4.43;;;4.03;;
9819;SDS011;4949;48.482;9.206;2023-04-03T04:30:26;4.30;;;4.00;;
9819;SDS011;4949;48.482;9.206;2023-04-03T04:35:27;3.97;;;3.67;;
9819;SDS011;4949;48.482;9.206;2023-04-03T04:40:30;4.50;;;4.10;;
9819;SDS011;4949;48.482;9.206;2023-04-03T04:45:31;4.60;;;4.20;;
9819;SDS011;4949;48.482;9.206;2023-04-03T04:50:32;5.30;;;4.80;;
9819;SDS011;4949;48.482;9.206;2023-04-03T04:55:33;4.97;;;4.43;;
9819;SDS011;4949;48.482;9.206;2023-04-03T05:00:33;5.30;;;4.80;;
9819;SDS011;4949;48.482;9.206;2023-04-03T05:05:36;3.67;;;3.40;;
9819;SDS011;4949;48.482;9.206;2023-04-03T05:10:37;5.93;;;4.57;;
9819;SDS011;4949;48.482;9.206;2023-04-03T05:15:40;5.70;;;4.70;;
9819;SDS011;4949;48.482;9.206;2023-04-03T05:20:41;4.43;;;4.03;;
9819;SDS011;4949;48.482;9.206;2023-04-03T05:25:44;4.20;;;3.80;;
9819;SDS011;4949;48.482;9.206;2023-04-03T05:30:52;4.37;;;4.00;;
9819;SDS011;4949;48.482;9.206;2023-04-03T05:35:55;4.97;;;4.57;;
9819;SDS011;4949;48.482;9.206;2023-04-03T05:40:56;5.93;;;4.07;;
9819;SDS011;4949;48.482;9.206;2023-04-03T05:45:59;4.60;;;4.00;;
9819;SDS011;4949;48.482;9.206;2023-04-03T05:51:02;4.30;;;3.90;;
9819;SDS011;4949;48.482;9.206;2023-04-03T05:56:05;3.90;;;3.60;;
9819;SDS011;4949;48.482;9.206;2023-04-03T06:01:06;4.00;;;3.70;;
9819;SDS011;4949;48.482;9.206;2023-04-03T06:06:06;3.70;;;3.43;;
9819;SDS011;4949;48.482;9.206;2023-04-03T06:11:08;3.60;;;3.20;;
9819;SDS011;4949;48.482;9.206;2023-04-03T06:16:12;5.50;;;3.20;;
9819;SDS011;4949;48.482;9.206;2023-04-03T06:21:15;2.77;;;2.40;;
9819;SDS011;4949;48.482;9.206;2023-04-03T06:26:18;3.03;;;2.83;;
9819;SDS011;4949;48.482;9.206;2023-04-03T06:31:19;2.70;;;2.50;;
9819;SDS011;4949;48.482;9.206;2023-04-03T06:36:20;4.40;;;3.33;;
9819;SDS011;4949;48.482;9.206;2023-04-03T06:41:21;3.03;;;2.73;;
9819;SDS011;4949;48.482;9.206;2023-04-03T06:46:26;4.43;;;3.60;;
9819;SDS011;4949;48.482;9.206;2023-04-03T06:51:27;3.73;;;2.73;;
9819;SDS011;4949;48.482;9.206;2023-04-03T06:56:30;3.23;;;3.03;;
9819;SDS011;4949;48.482;9.206;2023-04-03T07:01:30;3.57;;;3.37;;
9819;SDS011;4949;48.482;9.206;2023-04-03T07:06:31;3.57;;;3.27;;
9819;SDS011;4949;48.482;9.206;2023-04-03T07:11:37;3.70;;;3.40;;
9819;SDS011;4949;48.482;9.206;2023-04-03T07:16:38;3.70;;;3.40;;
9819;SDS011;4949;48.482;9.206;2023-04-03T07:21:43;3.70;;;3.40;;
9819;SDS011;4949;48.482;9.206;2023-04-03T07:26:49;3.70;;;3.40;;
9819;SDS011;4949;48.482;9.206;2023-04-03T07:31:52;3.30;;;3.00;;
9819;SDS011;4949;48.482;9.206;2023-04-03T07:36:53;3.60;;;3.30;;
9819;SDS011;4949;48.482;9.206;2023-04-03T07:41:54;3.00;;;2.80;;
9819;SDS011;4949;48.482;9.206;2023-04-03T07:46:56;3.43;;;3.07;;
9819;SDS011;4949;48.482;9.206;2023-04-03T07:51:56;3.30;;;3.00;;
9819;SDS011;4949;48.482;9.206;2023-04-03T07:56:58;3.63;;;3.33;;
9819;SDS011;4949;48.482;9.206;2023-04-03T08:01:59;4.10;;;3.70;;
9819;SDS011;4949;48.482;9.206;2023-04-03T08:07:00;3.33;;;3.07;;
9819;SDS011;4949;48.482;9.206;2023-04-03T08:12:00;3.60;;;3.30;;
9819;SDS011;4949;48.482;9.206;2023-04-03T08:17:01;3.20;;;2.83;;
9819;SDS011;4949;48.482;9.206;2023-04-03T08:22:04;3.37;;;3.07;;
9819;SDS011;4949;48.482;9.206;2023-04-03T08:27:05;3.60;;;3.40;;
9819;SDS011;4949;48.482;9.206;2023-04-03T08:32:08;3.40;;;3.10;;
9819;SDS011;4949;48.482;9.206;2023-04-03T08:37:11;5.47;;;3.60;;
9819;SDS011;4949;48.482;9.206;2023-04-03T08:42:17;3.73;;;3.43;;
9819;SDS011;4949;48.482;9.206;2023-04-03T08:47:41;3.90;;;3.60;;
9819;SDS011;4949;48.482;9.206;2023-04-03T08:52:59;4.40;;;4.00;;
9819;SDS011;4949;48.482;9.206;2023-04-03T08:58:05;4.70;;;3.77;;
9819;SDS011;4949;48.482;9.206;2023-04-03T09:03:13;3.33;;;3.03;;
9819;SDS011;4949;48.482;9.206;2023-04-03T09:18:52;3.13;;;2.83;;
9819;SDS011;4949;48.482;9.206;2023-04-03T09:24:31;3.00;;;2.70;;
9819;SDS011;4949;48.482;9.206;2023-04-03T09:29:36;3.20;;;2.90;;
9819;SDS011;4949;48.482;9.206;2023-04-03T09:34:46;3.43;;;3.13;;
9819;SDS011;4949;48.482;9.206;2023-04-03T09:39:50;3.40;;;3.20;;
9819;SDS011;4949;48.482;9.206;2023-04-03T09:44:57;3.60;;;3.30;;
9819;SDS011;4949;48.482;9.206;2023-04-03T09:50:09;3.60;;;3.10;;
9819;SDS011;4949;48.482;9.206;2023-04-03T09:55:17;4.13;;;3.40;;
9819;SDS011;4949;48.482;9.206;2023-04-03T10:05:39;5.23;;;3.90;;
9819;SDS011;4949;48.482;9.206;2023-04-03T10:10:44;3.50;;;3.20;;
9819;SDS011;4949;48.482;9.206;2023-04-03T10:15:56;5.13;;;4.67;;
9819;SDS011;4949;48.482;9.206;2023-04-03T10:21:33;3.97;;;3.57;;
9819;SDS011;4949;48.482;9.206;2023-04-03T10:32:26;4.57;;;3.53;;
9819;SDS011;4949;48.482;9.206;2023-04-03T10:43:36;3.50;;;3.07;;
9819;SDS011;4949;48.482;9.206;2023-04-03T10:54:04;4.67;;;3.23;;
9819;SDS011;4949;48.482;9.206;2023-04-03T11:04:34;3.37;;;3.13;;
9819;SDS011;4949;48.482;9.206;2023-04-03T11:09:41;3.47;;;3.17;;
9819;SDS011;4949;48.482;9.206;2023-04-03T11:14:44;3.73;;;3.43;;
9819;SDS011;4949;48.482;9.206;2023-04-03T11:30:25;4.30;;;3.30;;
9819;SDS011;4949;48.482;9.206;2023-04-03T11:35:49;3.73;;;2.90;;
9819;SDS011;4949;48.482;9.206;2023-04-03T11:40:57;3.50;;;3.13;;
9819;SDS011;4949;48.482;9.206;2023-04-03T11:46:02;3.80;;;2.97;;
9819;SDS011;4949;48.482;9.206;2023-04-03T12:07:00;3.70;;;2.93;;
9819;SDS011;4949;48.482;9.206;2023-04-03T12:12:32;4.03;;;3.03;;
9819;SDS011;4949;48.482;9.206;2023-04-03T12:17:37;3.43;;;3.13;;
9819;SDS011;4949;48.482;9.206;2023-04-03T12:22:44;5.73;;;2.90;;
9819;SDS011;4949;48.482;9.206;2023-04-03T12:28:35;3.23;;;2.97;;
9819;SDS011;4949;48.482;9.206;2023-04-03T12:39:56;3.20;;;2.90;;
9819;SDS011;4949;48.482;9.206;2023-04-03T12:45:25;4.40;;;2.97;;
9819;SDS011;4949;48.482;9.206;2023-04-03T12:50:31;3.60;;;3.20;;
9819;SDS011;4949;48.482;9.206;2023-04-03T12:55:37;3.83;;;2.70;;
9819;SDS011;4949;48.482;9.206;2023-04-03T13:00:42;4.77;;;2.90;;
9819;SDS011;4949;48.482;9.206;2023-04-03T13:05:48;3.67;;;3.20;;
9819;SDS011;4949;48.482;9.206;2023-04-03T13:10:51;3.60;;;3.30;;
9819;SDS011;4949;48.482;9.206;2023-04-03T13:16:07;4.37;;;2.83;;
9819;SDS011;4949;48.482;9.206;2023-04-03T13:21:13;3.20;;;2.63;;
9819;SDS011;4949;48.482;9.206;2023-04-03T13:26:27;4.43;;;3.20;;
9819;SDS011;4949;48.482;9.206;2023-04-03T13:31:33;3.00;;;2.57;;
9819;SDS011;4949;48.482;9.206;2023-04-03T13:36:38;4.00;;;3.20;;
9819;SDS011;4949;48.482;9.206;2023-04-03T13:41:48;3.37;;;2.57;;
9819;SDS011;4949;48.482;9.206;2023-04-03T13:46:55;2.83;;;2.53;;
9819;SDS011;4949;48.482;9.206;2023-04-03T13:57:22;3.30;;;3.00;;
9819;SDS011;4949;48.482;9.206;2023-04-03T14:02:31;5.60;;;4.33;;
9819;SDS011;4949;48.482;9.206;2023-04-03T14:07:33;3.80;;;2.97;;
9819;SDS011;4949;48.482;9.206;2023-04-03T14:12:35;4.47;;;2.90;;
9819;SDS011;4949;48.482;9.206;2023-04-03T14:17:39;3.00;;;2.80;;
9819;SDS011;4949;48.482;9.206;2023-04-03T14:22:44;4.60;;;3.20;;
9819;SDS011;4949;48.482;9.206;2023-04-03T14:27:51;3.23;;;2.93;;
9819;SDS011;4949;48.482;9.206;2023-04-03T14:33:09;3.87;;;2.90;;
9819;SDS011;4949;48.482;9.206;2023-04-03T14:38:27;3.00;;;2.70;;
9819;SDS011;4949;48.482;9.206;2023-04-03T14:43:30;3.77;;;3.47;;
9819;SDS011;4949;48.482;9.206;2023-04-03T14:48:34;4.73;;;3.03;;
9819;SDS011;4949;48.482;9.206;2023-04-03T14:53:37;3.33;;;2.90;;
9819;SDS011;4949;48.482;9.206;2023-04-03T14:58:39;4.00;;;2.90;;
9819;SDS011;4949;48.482;9.206;2023-04-03T15:03:40;3.53;;;3.10;;
9819;SDS011;4949;48.482;9.206;2023-04-03T15:08:43;3.60;;;3.30;;
9819;SDS011;4949;48.482;9.206;2023-04-03T15:13:48;3.50;;;3.20;;
9819;SDS011;4949;48.482;9.206;2023-04-03T15:18:49;3.60;;;3.40;;
9819;SDS011;4949;48.482;9.206;2023-04-03T15:23:50;3.63;;;3.30;;
9819;SDS011;4949;48.482;9.206;2023-04-03T15:28:51;3.60;;;3.23;;
9819;SDS011;4949;48.482;9.206;2023-04-03T15:33:52;3.70;;;3.40;;
9819;SDS011;4949;48.482;9.206;2023-04-03T15:38:53;2.83;;;2.63;;
9819;SDS011;4949;48.482;9.206;2023-04-03T15:43:53;7.23;;;3.43;;
9819;SDS011;4949;48.482;9.206;2023-04-03T15:48:54;4.40;;;3.30;;
9819;SDS011;4949;48.482;9.206;2023-04-03T15:53:58;5.90;;;3.40;;
9819;SDS011;4949;48.482;9.206;2023-04-03T15:58:59;3.63;;;3.33;;
9819;SDS011;4949;48.482;9.206;2023-04-03T16:03:59;3.57;;;2.83;;
9819;SDS011;4949;48.482;9.206;2023-04-03T16:09:00;3.83;;;2.90;;
9819;SDS011;4949;48.482;9.206;2023-04-03T16:14:01;4.93;;;4.30;;
9819;SDS011;4949;48.482;9.206;2023-04-03T16:19:02;3.53;;;3.23;;
9819;SDS011;4949;48.482;9.206;2023-04-03T16:24:06;2.87;;;2.67;;
9819;SDS011;4949;48.482;9.206;2023-04-03T16:29:07;4.07;;;3.57;;
9819;SDS011;4949;48.482;9.206;2023-04-03T16:34:07;3.37;;;3.07;;
9819;SDS011;4949;48.482;9.206;2023-04-03T16:39:08;4.00;;;2.90;;
9819;SDS011;4949;48.482;9.206;2023-04-03T16:44:12;4.60;;;3.73;;
9819;SDS011;4949;48.482;9.206;2023-04-03T16:49:15;4.37;;;4.00;;
9819;SDS011;4949;48.482;9.206;2023-04-03T16:54:16;4.13;;;3.80;;
9819;SDS011;4949;48.482;9.206;2023-04-03T16:59:16;3.43;;;3.13;;
9819;SDS011;4949;48.482;9.206;2023-04-03T17:04:18;3.87;;;3.50;;
9819;SDS011;4949;48.482;9.206;2023-04-03T17:09:18;3.33;;;3.03;;
9819;SDS011;4949;48.482;9.206;2023-04-03T17:14:20;3.67;;;3.37;;
9819;SDS011;4949;48.482;9.206;2023-04-03T17:19:23;3.73;;;2.80;;
9819;SDS011;4949;48.482;9.206;2023-04-03T17:24:24;4.10;;;3.50;;
9819;SDS011;4949;48.482;9.206;2023-04-03T17:29:25;3.93;;;3.40;;
9819;SDS011;4949;48.482;9.206;2023-04-03T17:34:26;7.10;;;5.20;;
9819;SDS011;4949;48.482;9.206;2023-04-03T17:39:27;3.37;;;3.13;;
9819;SDS011;4949;48.482;9.206;2023-04-03T17:44:30;3.77;;;3.43;;
9819;SDS011;4949;48.482;9.206;2023-04-03T17:49:31;5.97;;;3.73;;
9819;SDS011;4949;48.482;9.206;2023-04-03T17:54:32;3.40;;;3.10;;
9819;SDS011;4949;48.482;9.206;2023-04-03T17:59:33;4.40;;;4.10;;
9819;SDS011;4949;48.482;9.206;2023-04-03T18:04:34;4.97;;;4.27;;
9819;SDS011;4949;48.482;9.206;2023-04-03T18:09:35;5.50;;;4.20;;
9819;SDS011;4949;48.482;9.206;2023-04-03T18:14:40;4.33;;;4.00;;
9819;SDS011;4949;48.482;9.206;2023-04-03T18:19:40;6.40;;;4.70;;
9819;SDS011;4949;48.482;9.206;2023-04-03T18:24:41;5.40;;;4.90;;
9819;SDS011;4949;48.482;9.206;2023-04-03T18:29:44;5.27;;;4.77;;
9819;SDS011;4949;48.482;9.206;2023-04-03T18:34:48;4.37;;;3.97;;
9819;SDS011;4949;48.482;9.206;2023-04-03T18:39:49;4.27;;;3.73;;
9819;SDS011;4949;48.482;9.206;2023-04-03T18:44:51;4.80;;;4.40;;
9819;SDS011;4949;48.482;9.206;2023-04-03T18:50:03;4.70;;;4.03;;
9819;SDS011;4949;48.482;9.206;2023-04-03T18:55:07;5.07;;;4.57;;
9819;SDS011;4949;48.482;9.206;2023-04-03T19:00:10;5.20;;;4.07;;
9819;SDS011;4949;48.482;9.206;2023-04-03T19:05:14;3.90;;;3.60;;
9819;SDS011;4949;48.482;9.206;2023-04-03T19:10:16;5.20;;;4.60;;
9819;SDS011;4949;48.482;9.206;2023-04-03T19:15:19;4.23;;;3.60;;
9819;SDS011;4949;48.482;9.206;2023-04-03T19:20:23;4.57;;;4.10;;
9819;SDS011;4949;48.482;9.206;2023-04-03T19:25:24;5.77;;;4.50;;
9819;SDS011;4949;48.482;9.206;2023-04-03T19:30:27;4.30;;;3.90;;
9819;SDS011;4949;48.482;9.206;2023-04-03T19:35:28;4.30;;;3.90;;
9819;SDS011;4949;48.482;9.206;2023-04-03T19:40:29;7.33;;;4.27;;
9819;SDS011;4949;48.482;9.206;2023-04-03T19:45:31;4.57;;;3.80;;
9819;SDS011;4949;48.482;9.206;2023-04-03T19:50:32;5.60;;;4.07;;
9819;SDS011;4949;48.482;9.206;2023-04-03T19:55:36;3.60;;;3.30;;
9819;SDS011;4949;48.482;9.206;2023-04-03T20:00:37;5.13;;;3.93;;
9819;SDS011;4949;48.482;9.206;2023-04-03T20:05:38;4.30;;;3.90;;
9819;SDS011;4949;48.482;9.206;2023-04-03T20:10:39;5.33;;;3.90;;
9819;SDS011;4949;48.482;9.206;2023-04-03T20:15:40;3.93;;;3.63;;
9819;SDS011;4949;48.482;9.206;2023-04-03T20:20:43;4.03;;;3.70;;
9819;SDS011;4949;48.482;9.206;2023-04-03T20:25:53;4.50;;;4.03;;
9819;SDS011;4949;48.482;9.206;2023-04-03T20:30:59;3.87;;;3.57;;
9819;SDS011;4949;48.482;9.206;2023-04-03T20:36:01;4.80;;;4.40;;
9819;SDS011;4949;48.482;9.206;2023-04-03T20:41:03;4.87;;;4.10;;
9819;SDS011;4949;48.482;9.206;2023-04-03T20:46:06;6.00;;;5.30;;
9819;SDS011;4949;48.482;9.206;2023-04-03T20:51:16;6.60;;;4.30;;
9819;SDS011;4949;48.482;9.206;2023-04-03T20:56:19;3.80;;;3.37;;
9819;SDS011;4949;48.482;9.206;2023-04-03T21:01:21;4.53;;;3.93;;
9819;SDS011;4949;48.482;9.206;2023-04-03T21:23:54;3.30;;;3.00;;
9819;SDS011;4949;48.482;9.206;2023-04-03T21:28:55;4.00;;;3.60;;
9819;SDS011;4949;48.482;9.206;2023-04-03T21:33:58;3.10;;;2.83;;
9819;SDS011;4949;48.482;9.206;2023-04-03T21:39:00;3.93;;;3.40;;
9819;SDS011;4949;48.482;9.206;2023-04-03T21:44:04;2.90;;;2.60;;
9819;SDS011;4949;48.482;9.206;2023-04-03T21:49:07;3.47;;;3.17;;
9819;SDS011;4949;48.482;9.206;2023-04-03T21:54:10;3.50;;;3.13;;
9819;SDS011;4949;48.482;9.206;2023-04-03T21:59:14;5.10;;;2.97;;
9819;SDS011;4949;48.482;9.206;2023-04-03T22:04:20;5.33;;;2.97;;
9819;SDS011;4949;48.482;9.206;2023-04-03T22:09:25;5.10;;;3.10;;
9819;SDS011;4949;48.482;9.206;2023-04-03T22:14:26;3.20;;;2.77;;
9819;SDS011;4949;48.482;9.206;2023-04-03T22:19:29;3.77;;;3.37;;
9819;SDS011;4949;48.482;9.206;2023-04-03T22:24:30;3.23;;;2.93;;
9819;SDS011;4949;48.482;9.206;2023-04-03T22:29:31;3.73;;;2.90;;
9819;SDS011;4949;48.482;9.206;2023-04-03T22:34:35;4.23;;;3.10;;
9819;SDS011;4949;48.482;9.206;2023-04-03T22:39:37;3.40;;;3.00;;
9819;SDS011;4949;48.482;9.206;2023-04-03T22:44:37;3.90;;;3.60;;
9819;SDS011;4949;48.482;9.206;2023-04-03T22:49:40;4.33;;;2.80;;
9819;SDS011;4949;48.482;9.206;2023-04-03T22:54:41;3.27;;;2.87;;
9819;SDS011;4949;48.482;9.206;2023-04-03T22:59:44;3.10;;;2.80;;
9819;SDS011;4949;48.482;9.206;2023-04-03T23:04:45;4.13;;;3.10;;
9819;SDS011;4949;48.482;9.206;2023-04-03T23:09:46;2.73;;;2.50;;
9819;SDS011;4949;48.482;9.206;2023-04-03T23:14:49;3.83;;;2.90;;
9819;SDS011;4949;48.482;9.206;2023-04-03T23:19:49;5.30;;;3.10;;
9819;SDS011;4949;48.482;9.206;2023-04-03T23:24:52;3.90;;;3.60;;
9819;SDS011;4949;48.482;9.206;2023-04-03T23:29:53;6.00;;;3.17;;
9819;SDS011;4949;48.482;9.206;2023-04-03T23:34:54;3.30;;;3.00;;
9819;SDS011;4949;48.482;9.206;2023-04-03T23:39:55;4.50;;;3.00;;
9819;SDS011;4949;48.482;9.206;2023-04-03T23:44:56;4.17;;;3.00;;
9819;SDS011;4949;48.482;9.206;2023-04-03T23:49:57;2.70;;;2.50;;
9819;SDS011;4949;48.482;9.206;2023-04-03T23:54:57;3.60;;;2.80;;
9819;SDS011;4949;48.482;9.206;2023-04-03T23:59:59;3.00;;;2.70;;
